createdAt,value
2023-02-11T00:00:58.834Z,7.61
2023-02-11T00:03:28.466Z,7.59
2023-02-11T00:06:09.241Z,7.61
2023-02-11T00:08:36.714Z,7.67
2023-02-11T00:11:04.124Z,7.61
2023-02-11T00:13:31.053Z,7.51
2023-02-11T00:15:58.452Z,7.54
2023-02-11T00:18:25.860Z,7.55
2023-02-11T00:20:53.021Z,7.56
2023-02-11T00:23:19.709Z,7.65
2023-02-11T00:25:46.429Z,7.64
2023-02-11T00:28:13.665Z,7.70
2023-02-11T00:30:41.267Z,7.71
2023-02-11T00:33:08.608Z,7.67
2023-02-11T00:35:38.675Z,7.56
2023-02-11T00:38:08.186Z,7.63
2023-02-11T00:40:34.907Z,7.64
2023-02-11T00:43:03.660Z,7.63
2023-02-11T00:45:31.742Z,7.63
2023-02-11T00:47:58.671Z,7.61
2023-02-11T00:50:30.202Z,7.61
2023-02-11T00:52:57.105Z,7.63
2023-02-11T00:55:23.846Z,7.63
2023-02-11T00:57:51.031Z,7.64
2023-02-11T01:00:18.232Z,7.60
2023-02-11T01:02:45.580Z,7.57
2023-02-11T01:05:12.724Z,7.61
2023-02-11T01:07:39.589Z,7.55
2023-02-11T01:10:06.623Z,7.45
2023-02-11T01:12:36.270Z,7.31
2023-02-11T01:15:05.129Z,7.25
2023-02-11T01:17:33.787Z,7.19
2023-02-11T01:20:07.115Z,7.29
2023-02-11T01:22:34.438Z,7.35
2023-02-11T01:25:01.775Z,7.38
2023-02-11T01:27:28.402Z,7.45
2023-02-11T01:29:57.120Z,7.49
2023-02-11T01:32:24.106Z,7.51
2023-02-11T01:34:51.080Z,7.51
2023-02-11T01:37:17.865Z,7.51
2023-02-11T01:39:44.717Z,7.46
2023-02-11T01:42:17.132Z,7.47
2023-02-11T01:44:44.109Z,7.50
2023-02-11T01:47:14.227Z,7.53
2023-02-11T01:49:46.352Z,7.58
2023-02-11T01:52:20.108Z,7.52
2023-02-11T01:55:11.201Z,7.54
2023-02-11T01:57:41.258Z,7.57
2023-02-11T02:00:08.547Z,7.57
2023-02-11T02:02:59.205Z,7.59
2023-02-11T02:05:52.948Z,7.58
2023-02-11T02:08:34.402Z,7.58
2023-02-11T02:11:02.981Z,7.59
2023-02-11T02:13:33.719Z,7.57
2023-02-11T02:16:02.238Z,7.53
2023-02-11T02:18:51.163Z,7.58
2023-02-11T02:21:37.086Z,7.63
2023-02-11T02:24:15.900Z,7.58
2023-02-11T02:27:19.936Z,7.61
2023-02-11T02:30:14.450Z,7.55
2023-02-11T02:33:20.535Z,7.57
2023-02-11T02:35:59.681Z,7.52
2023-02-11T02:38:39.212Z,7.49
2023-02-11T02:41:14.364Z,7.52
2023-02-11T02:43:45.204Z,7.55
2023-02-11T02:46:19.442Z,7.54
2023-02-11T02:48:47.408Z,7.54
2023-02-11T02:51:56.669Z,7.57
2023-02-11T02:54:54.374Z,7.55
2023-02-11T02:57:43.053Z,7.58
2023-02-11T03:00:14.838Z,7.53
2023-02-11T03:02:52.077Z,7.54
2023-02-11T03:05:30.248Z,7.56
2023-02-11T03:08:05.539Z,7.54
2023-02-11T03:10:38.154Z,7.56
2023-02-11T03:13:06.007Z,7.53
2023-02-11T03:15:41.310Z,7.52
2023-02-11T03:18:13.787Z,7.51
2023-02-11T03:20:44.527Z,7.48
2023-02-11T03:23:44.348Z,7.45
2023-02-11T03:26:33.675Z,7.46
2023-02-11T03:29:10.899Z,7.49
2023-02-11T03:31:56.824Z,7.45
2023-02-11T03:34:35.648Z,7.52
2023-02-11T03:37:18.037Z,7.45
2023-02-11T03:39:52.300Z,7.44
2023-02-11T03:42:19.821Z,7.48
2023-02-11T03:44:59.181Z,7.43
2023-02-11T03:47:29.016Z,7.42
2023-02-11T03:49:58.931Z,7.49
2023-02-11T03:52:27.964Z,7.52
2023-02-11T03:54:58.182Z,7.50
2023-02-11T03:57:25.022Z,7.53
2023-02-11T03:59:58.243Z,7.52
2023-02-11T04:02:29.445Z,7.55
2023-02-11T04:04:56.283Z,7.58
2023-02-11T04:07:24.458Z,7.53
2023-02-11T04:09:51.969Z,7.55
2023-02-11T04:12:18.772Z,7.57
2023-02-11T04:14:45.777Z,7.55
2023-02-11T04:17:13.626Z,7.51
2023-02-11T04:19:40.853Z,7.47
2023-02-11T04:22:09.135Z,7.49
2023-02-11T04:24:36.143Z,7.46
2023-02-11T04:27:02.892Z,7.48
2023-02-11T04:29:29.705Z,7.46
2023-02-11T04:31:56.837Z,7.48
2023-02-11T04:34:24.902Z,7.52
2023-02-11T04:36:51.587Z,7.51
2023-02-11T04:39:18.814Z,7.50
2023-02-11T04:41:45.516Z,7.50
2023-02-11T04:44:12.627Z,7.53
2023-02-11T04:46:39.316Z,7.50
2023-02-11T04:49:06.081Z,7.49
2023-02-11T04:51:33.030Z,7.49
2023-02-11T04:54:00.134Z,7.49
2023-02-11T04:56:26.963Z,7.48
2023-02-11T04:58:53.731Z,7.52
2023-02-11T05:01:20.934Z,7.55
2023-02-11T05:03:48.009Z,7.53
2023-02-11T05:06:14.771Z,7.57
2023-02-11T05:08:41.511Z,7.56
2023-02-11T05:11:14.605Z,7.58
2023-02-11T05:13:41.407Z,7.56
2023-02-11T05:16:08.630Z,7.49
2023-02-11T05:18:38.239Z,7.47
2023-02-11T05:21:11.951Z,7.39
2023-02-11T05:23:40.772Z,7.40
2023-02-11T05:26:08.661Z,7.51
2023-02-11T05:28:37.454Z,7.50
2023-02-11T05:31:04.509Z,7.43
2023-02-11T05:33:32.012Z,7.46
2023-02-11T05:36:04.873Z,7.38
2023-02-11T05:38:32.404Z,7.44
2023-02-11T05:40:59.046Z,7.42
2023-02-11T05:43:28.653Z,7.40
2023-02-11T05:45:55.922Z,7.37
2023-02-11T05:48:28.081Z,7.38
2023-02-11T05:50:56.214Z,7.27
2023-02-11T05:53:23.277Z,7.39
2023-02-11T05:55:50.291Z,7.45
2023-02-11T05:58:17.380Z,7.44
2023-02-11T06:00:44.201Z,7.44
2023-02-11T06:03:10.939Z,7.55
2023-02-11T06:05:38.075Z,7.55
2023-02-11T06:08:05.081Z,7.53
2023-02-11T06:10:31.760Z,7.49
2023-02-11T06:12:58.495Z,7.50
2023-02-11T06:15:25.673Z,7.54
2023-02-11T06:17:52.524Z,7.60
2023-02-11T06:20:19.525Z,7.57
2023-02-11T06:22:46.369Z,7.54
2023-02-11T06:25:13.537Z,7.52
2023-02-11T06:27:40.824Z,7.59
2023-02-11T06:30:09.989Z,7.57
2023-02-11T06:32:44.424Z,7.64
2023-02-11T06:35:12.789Z,7.67
2023-02-11T06:37:40.984Z,7.63
2023-02-11T06:40:08.616Z,7.66
2023-02-11T06:42:36.269Z,7.62
2023-02-11T06:45:06.178Z,7.68
2023-02-11T06:47:33.388Z,7.66
2023-02-11T06:50:00.195Z,7.61
2023-02-11T06:52:27.020Z,7.61
2023-02-11T06:54:53.743Z,7.63
2023-02-11T06:57:20.537Z,7.63
2023-02-11T06:59:48.289Z,7.68
2023-02-11T07:02:20.653Z,7.71
2023-02-11T07:04:47.872Z,7.70
2023-02-11T07:07:14.583Z,7.71
2023-02-11T07:09:41.585Z,7.72
2023-02-11T07:12:10.425Z,7.72
2023-02-11T07:14:38.051Z,7.76
2023-02-11T07:17:05.252Z,7.74
2023-02-11T07:19:32.155Z,7.86
2023-02-11T07:21:58.831Z,7.84
2023-02-11T07:24:28.675Z,7.91
2023-02-11T07:26:58.156Z,7.88
2023-02-11T07:29:24.787Z,7.98
2023-02-11T07:31:51.546Z,7.94
2023-02-11T07:34:21.352Z,7.96
2023-02-11T07:36:49.019Z,7.96
2023-02-11T07:39:16.836Z,8.01
2023-02-11T07:41:46.806Z,8.10
2023-02-11T07:44:14.195Z,8.04
2023-02-11T07:46:44.559Z,7.99
2023-02-11T07:49:12.596Z,8.08
2023-02-11T07:51:39.292Z,8.01
2023-02-11T07:54:06.308Z,8.09
2023-02-11T07:56:34.564Z,8.10
2023-02-11T07:59:03.537Z,8.08
2023-02-11T08:01:30.729Z,8.12
2023-02-11T08:03:59.168Z,8.16
2023-02-11T08:06:28.903Z,8.24
2023-02-11T08:08:56.219Z,8.24
2023-02-11T08:11:30.295Z,8.27
2023-02-11T08:13:57.353Z,8.28
2023-02-11T08:16:34.471Z,8.38
2023-02-11T08:19:05.202Z,8.33
2023-02-11T08:21:32.413Z,8.42
2023-02-11T08:23:59.176Z,8.39
2023-02-11T08:26:29.551Z,8.40
2023-02-11T08:28:57.826Z,8.47
2023-02-11T08:31:33.002Z,8.53
2023-02-11T08:34:02.365Z,8.51
2023-02-11T08:36:33.205Z,8.54
2023-02-11T08:39:18.003Z,8.60
2023-02-11T08:41:48.889Z,8.64
2023-02-11T08:44:17.150Z,8.75
2023-02-11T08:46:44.211Z,8.66
2023-02-11T08:49:11.201Z,8.80
2023-02-11T08:51:41.391Z,8.83
2023-02-11T08:54:09.936Z,8.84
2023-02-11T08:56:38.218Z,8.86
2023-02-11T08:59:05.549Z,8.83
2023-02-11T09:01:33.543Z,8.89
2023-02-11T09:04:01.251Z,8.90
2023-02-11T09:06:29.084Z,8.90
2023-02-11T09:08:58.036Z,8.92
2023-02-11T09:11:30.997Z,8.97
2023-02-11T09:13:58.237Z,9.08
2023-02-11T09:16:30.555Z,9.02
2023-02-11T09:18:58.887Z,9.19
2023-02-11T09:21:25.922Z,9.10
2023-02-11T09:23:53.129Z,9.14
2023-02-11T09:26:24.019Z,9.14
2023-02-11T09:28:51.489Z,9.21
2023-02-11T09:31:21.706Z,9.27
2023-02-11T09:33:51.179Z,9.26
2023-02-11T09:36:25.012Z,9.29
2023-02-11T09:38:52.554Z,9.34
2023-02-11T09:41:24.837Z,9.39
2023-02-11T09:44:02.942Z,9.40
2023-02-11T09:46:42.684Z,9.48
2023-02-11T09:49:20.080Z,9.50
2023-02-11T09:51:55.393Z,9.49
2023-02-11T09:54:44.988Z,9.53
2023-02-11T09:57:27.857Z,9.48
2023-02-11T09:59:57.769Z,9.51
2023-02-11T10:02:45.163Z,9.58
2023-02-11T10:05:36.562Z,9.60
2023-02-11T10:08:14.628Z,9.62
2023-02-11T10:10:43.082Z,9.67
2023-02-11T10:13:40.823Z,9.73
2023-02-11T10:16:33.587Z,9.76
2023-02-11T10:19:44.053Z,9.72
2023-02-11T10:22:15.057Z,9.73
2023-02-11T10:24:51.124Z,9.66
2023-02-11T10:27:21.206Z,9.62
2023-02-11T10:30:05.295Z,9.78
2023-02-11T10:32:49.069Z,9.81
2023-02-11T10:35:19.686Z,9.91
2023-02-11T10:37:47.516Z,10.01
2023-02-11T10:40:20.304Z,10.00
2023-02-11T10:42:53.624Z,9.89
2023-02-11T10:45:28.516Z,9.93
2023-02-11T10:47:55.527Z,9.90
2023-02-11T10:50:31.130Z,9.84
2023-02-11T10:53:22.445Z,9.92
2023-02-11T10:55:56.067Z,9.95
2023-02-11T10:58:45.440Z,10.00
2023-02-11T11:01:23.902Z,10.05
2023-02-11T11:03:53.034Z,10.07
2023-02-11T11:06:33.815Z,10.11
2023-02-11T11:09:01.228Z,10.11
2023-02-11T11:11:28.071Z,10.19
2023-02-11T11:14:19.449Z,10.27
2023-02-11T11:16:54.998Z,10.25
2023-02-11T11:19:26.008Z,10.28
2023-02-11T11:21:55.349Z,10.32
2023-02-11T11:24:26.971Z,10.44
2023-02-11T11:27:01.080Z,10.36
2023-02-11T11:29:39.037Z,10.42
2023-02-11T11:32:14.503Z,10.51
2023-02-11T11:34:49.053Z,10.58
2023-02-11T11:38:02.326Z,10.58
2023-02-11T11:40:32.002Z,10.59
2023-02-11T11:43:17.355Z,10.71
2023-02-11T11:45:57.172Z,10.68
2023-02-11T11:48:38.309Z,10.60
2023-02-11T11:51:10.848Z,10.66
2023-02-11T11:53:57.348Z,10.54
2023-02-11T11:56:31.897Z,10.58
2023-02-11T12:01:50.815Z,10.74
2023-02-11T12:04:56.100Z,10.75
2023-02-11T12:07:38.997Z,10.78
2023-02-11T12:10:15.099Z,10.87
2023-02-11T12:13:22.762Z,10.95
2023-02-11T12:16:01.288Z,10.90
2023-02-11T12:18:37.989Z,10.97
2023-02-11T12:21:23.107Z,11.00
2023-02-11T12:24:10.685Z,11.12
2023-02-11T12:26:55.680Z,11.07
2023-02-11T12:29:58.271Z,10.89
2023-02-11T12:32:39.277Z,11.04
2023-02-11T12:35:32.683Z,11.21
2023-02-11T12:38:18.935Z,10.98
2023-02-11T12:40:48.902Z,10.98
2023-02-11T12:43:18.702Z,11.11
2023-02-11T12:46:27.634Z,11.15
2023-02-11T12:49:22.591Z,11.47
2023-02-11T12:51:57.835Z,11.61
2023-02-11T12:54:31.563Z,11.77
2023-02-11T12:57:17.239Z,11.86
2023-02-11T13:00:08.882Z,11.93
2023-02-11T13:03:06.123Z,12.22
2023-02-11T13:05:52.014Z,12.28
2023-02-11T13:08:43.313Z,12.43
2023-02-11T13:11:24.557Z,12.08
2023-02-11T13:13:55.502Z,12.12
2023-02-11T13:16:45.676Z,11.98
2023-02-11T13:19:18.550Z,12.16
2023-02-11T13:22:11.013Z,11.96
2023-02-11T13:24:49.715Z,11.99
2023-02-11T13:27:44.571Z,11.93
2023-02-11T13:30:33.735Z,11.76
2023-02-11T13:33:08.906Z,11.87
2023-02-11T13:35:46.417Z,11.80
2023-02-11T13:38:22.264Z,11.91
2023-02-11T13:41:01.090Z,11.90
2023-02-11T13:43:31.630Z,11.76
2023-02-11T13:46:07.571Z,11.73
2023-02-11T13:48:48.036Z,11.73
2023-02-11T13:51:18.377Z,11.73
2023-02-11T13:53:55.776Z,11.83
2023-02-11T13:56:33.857Z,11.90
2023-02-11T13:59:27.535Z,11.91
2023-02-11T14:02:14.283Z,11.89
2023-02-11T14:05:24.934Z,11.91
2023-02-11T14:08:28.845Z,11.74
2023-02-11T14:10:55.564Z,11.76
2023-02-11T14:13:36.112Z,11.75
2023-02-11T14:16:17.069Z,11.79
2023-02-11T14:18:59.753Z,11.73
2023-02-11T14:21:27.400Z,11.58
2023-02-11T14:24:14.550Z,11.61
2023-02-11T14:26:53.040Z,11.56
2023-02-11T14:29:59.278Z,11.54
2023-02-11T14:32:45.750Z,11.39
2023-02-11T14:35:20.626Z,11.49
2023-02-11T14:38:18.687Z,11.52
2023-02-11T14:41:06.706Z,11.53
2023-02-11T14:43:39.917Z,11.51
2023-02-11T14:46:07.770Z,11.53
2023-02-11T14:48:38.093Z,11.44
2023-02-11T14:51:13.990Z,11.33
2023-02-11T14:53:47.867Z,11.43
2023-02-11T14:56:31.815Z,11.54
2023-02-11T14:58:59.074Z,11.66
2023-02-11T15:01:35.127Z,11.66
2023-02-11T15:04:04.437Z,11.50
2023-02-11T15:06:41.084Z,11.47
2023-02-11T15:09:18.720Z,11.52
2023-02-11T15:11:49.375Z,11.37
2023-02-11T15:14:29.808Z,11.27
2023-02-11T15:16:59.402Z,11.27
2023-02-11T15:19:34.212Z,11.32
2023-02-11T15:22:26.605Z,11.27
2023-02-11T15:25:17.816Z,11.21
2023-02-11T15:27:48.384Z,11.19
2023-02-11T15:30:29.049Z,11.17
2023-02-11T15:33:05.963Z,11.13
2023-02-11T15:35:38.365Z,11.14
2023-02-11T15:38:05.756Z,11.07
2023-02-11T15:40:35.302Z,10.98
2023-02-11T15:43:07.185Z,11.09
2023-02-11T15:45:44.217Z,11.07
2023-02-11T15:48:39.425Z,10.98
2023-02-11T15:51:41.937Z,11.00
2023-02-11T15:54:26.815Z,10.97
2023-02-11T15:57:01.769Z,11.00
2023-02-11T15:59:33.252Z,10.95
2023-02-11T16:02:29.170Z,10.93
2023-02-11T16:05:01.931Z,10.98
2023-02-11T16:07:55.872Z,10.96
2023-02-11T16:10:35.390Z,10.84
2023-02-11T16:13:09.779Z,10.90
2023-02-11T16:15:43.185Z,10.90
2023-02-11T16:18:36.811Z,10.76
2023-02-11T16:21:16.724Z,10.80
2023-02-11T16:23:50.960Z,10.75
2023-02-11T16:26:36.260Z,10.70
2023-02-11T16:29:09.829Z,10.71
2023-02-11T16:31:44.602Z,10.62
2023-02-11T16:34:20.278Z,10.62
2023-02-11T16:36:48.884Z,10.61
2023-02-11T16:39:17.546Z,10.61
2023-02-11T16:41:47.720Z,10.58
2023-02-11T16:44:14.595Z,10.58
2023-02-11T16:46:50.822Z,10.54
2023-02-11T16:49:32.057Z,10.50
2023-02-11T16:52:11.287Z,10.48
2023-02-11T16:54:56.062Z,10.40
2023-02-11T16:57:24.731Z,10.48
2023-02-11T17:00:00.027Z,10.48
2023-02-11T17:02:34.570Z,10.34
2023-02-11T17:05:08.892Z,10.41
2023-02-11T17:07:36.272Z,10.34
2023-02-11T17:10:21.135Z,10.42
2023-02-11T17:12:54.141Z,10.30
2023-02-11T17:15:35.720Z,10.28
2023-02-11T17:18:03.829Z,10.37
2023-02-11T17:20:40.038Z,10.39
2023-02-11T17:23:07.961Z,10.31
2023-02-11T17:25:39.482Z,10.33
2023-02-11T17:28:09.825Z,10.30
2023-02-11T17:34:17.319Z,10.27
2023-02-11T17:36:45.015Z,10.26
2023-02-11T17:39:12.510Z,10.16
2023-02-11T17:41:45.402Z,10.15
2023-02-11T17:44:22.469Z,10.20
2023-02-11T17:46:56.138Z,10.09
2023-02-11T17:49:30.341Z,10.20
2023-02-11T17:52:10.191Z,10.08
2023-02-11T17:54:38.963Z,10.15
2023-02-11T17:57:06.383Z,10.11
2023-02-11T17:59:41.266Z,10.14
2023-02-11T18:02:15.515Z,10.12
2023-02-11T18:05:22.576Z,10.19
2023-02-11T18:07:49.876Z,10.07
2023-02-11T18:10:17.193Z,10.05
2023-02-11T18:12:57.142Z,10.16
2023-02-11T18:15:36.633Z,10.12
2023-02-11T18:18:07.562Z,10.02
2023-02-11T18:20:35.023Z,10.06
2023-02-11T18:23:04.341Z,10.09
2023-02-11T18:29:43.926Z,9.98
2023-02-11T18:32:11.504Z,10.02
2023-02-11T18:34:48.649Z,10.12
2023-02-11T18:37:16.594Z,10.10
2023-02-11T18:39:45.978Z,10.12
2023-02-11T18:42:13.063Z,10.06
2023-02-11T18:44:42.425Z,10.03
2023-02-11T18:47:16.127Z,9.98
2023-02-11T18:49:50.035Z,9.93
2023-02-11T18:52:20.423Z,10.00
2023-02-11T18:54:52.288Z,9.99
2023-02-11T18:57:22.383Z,9.98
2023-02-11T18:59:51.950Z,9.96
2023-02-11T19:02:25.041Z,10.00
2023-02-11T19:04:54.229Z,9.88
2023-02-11T19:07:27.086Z,9.96
2023-02-11T19:09:54.467Z,9.89
2023-02-11T19:12:27.691Z,9.89
2023-02-11T19:14:56.915Z,9.84
2023-02-11T19:17:25.858Z,9.89
2023-02-11T19:19:53.289Z,9.97
2023-02-11T19:22:27.263Z,9.88
2023-02-11T19:25:07.893Z,9.83
2023-02-11T19:27:46.304Z,9.84
2023-02-11T19:30:17.684Z,9.79
2023-02-11T19:32:44.916Z,9.77
2023-02-11T19:35:11.658Z,9.79
2023-02-11T19:37:38.847Z,9.77
2023-02-11T19:40:06.517Z,9.82
2023-02-11T19:42:40.166Z,9.73
2023-02-11T19:45:10.334Z,9.83
2023-02-11T19:47:40.135Z,9.79
2023-02-11T19:50:21.052Z,9.73
2023-02-11T19:52:59.820Z,9.74
2023-02-11T19:55:34.223Z,9.75
2023-02-11T19:58:01.354Z,9.72
2023-02-11T20:00:28.451Z,9.72
2023-02-11T20:02:57.040Z,9.79
2023-02-11T20:05:33.747Z,9.79
2023-02-11T20:08:17.262Z,9.73
2023-02-11T20:10:46.755Z,9.81
2023-02-11T20:13:14.185Z,9.77
2023-02-11T20:15:41.260Z,9.80
2023-02-11T20:18:09.023Z,9.80
2023-02-11T20:20:40.422Z,9.79
2023-02-11T20:23:07.773Z,9.70
2023-02-11T20:25:40.818Z,9.79
2023-02-11T20:28:43.095Z,9.79
2023-02-11T20:31:30.970Z,9.71
2023-02-11T20:34:13.518Z,9.78
2023-02-11T20:36:52.371Z,9.66
2023-02-11T20:39:28.970Z,9.65
2023-02-11T20:42:00.496Z,9.63
2023-02-11T20:44:30.291Z,9.74
2023-02-11T20:46:57.151Z,9.72
2023-02-11T20:49:24.657Z,9.69
2023-02-11T20:51:57.970Z,9.66
2023-02-11T20:54:25.843Z,9.69
2023-02-11T20:56:54.237Z,9.61
2023-02-11T20:59:28.714Z,9.51
2023-02-11T21:02:01.833Z,9.54
2023-02-11T21:04:39.402Z,9.50
2023-02-11T21:07:09.555Z,9.49
2023-02-11T21:09:36.295Z,9.46
2023-02-11T21:12:03.870Z,9.54
2023-02-11T21:14:31.025Z,9.46
2023-02-11T21:16:58.196Z,9.44
2023-02-11T21:19:26.902Z,9.46
2023-02-11T21:21:55.695Z,9.53
2023-02-11T21:24:23.775Z,9.53
2023-02-11T21:26:51.048Z,9.56
2023-02-11T21:29:18.211Z,9.49
2023-02-11T21:31:47.696Z,9.52
2023-02-11T21:34:16.341Z,9.51
2023-02-11T21:36:44.831Z,9.39
2023-02-11T21:39:15.771Z,9.45
2023-02-11T21:41:42.704Z,9.44
2023-02-11T21:44:09.766Z,9.44
2023-02-11T21:46:38.331Z,9.36
2023-02-11T21:49:08.141Z,9.47
2023-02-11T21:51:35.200Z,9.36
2023-02-11T21:54:04.654Z,9.40
2023-02-11T21:56:33.938Z,9.41
2023-02-11T21:59:01.615Z,9.39
2023-02-11T22:01:31.710Z,9.38
2023-02-11T22:03:59.603Z,9.39
2023-02-11T22:06:31.034Z,9.36
2023-02-11T22:08:58.789Z,9.39
2023-02-11T22:11:26.084Z,9.40
2023-02-11T22:13:56.340Z,9.29
2023-02-11T22:16:24.136Z,9.37
2023-02-11T22:18:51.663Z,9.34
2023-02-11T22:21:21.671Z,9.30
2023-02-11T22:23:48.897Z,9.31
2023-02-11T22:26:18.394Z,9.39
2023-02-11T22:28:46.370Z,9.34
2023-02-11T22:31:16.122Z,9.38
2023-02-11T22:33:43.525Z,9.37
2023-02-11T22:36:19.057Z,9.39
2023-02-11T22:38:46.104Z,9.38
2023-02-11T22:41:13.747Z,9.39
2023-02-11T22:43:42.242Z,9.33
2023-02-11T22:46:10.935Z,9.34
2023-02-11T22:48:38.158Z,9.38
2023-02-11T22:51:26.328Z,9.38
2023-02-11T22:53:58.937Z,9.34
2023-02-11T22:56:27.752Z,9.34
2023-02-11T22:58:57.610Z,9.34
2023-02-11T23:01:25.083Z,9.32
2023-02-11T23:03:51.911Z,9.26
2023-02-11T23:06:19.034Z,9.26
2023-02-11T23:08:46.670Z,9.28
2023-02-11T23:11:22.748Z,9.27
2023-02-11T23:13:52.328Z,9.26
2023-02-11T23:16:22.049Z,9.25
2023-02-11T23:18:50.730Z,9.26
2023-02-11T23:21:26.742Z,9.25
2023-02-11T23:24:03.385Z,9.23
2023-02-11T23:26:30.750Z,9.25
2023-02-11T23:28:58.650Z,9.24
2023-02-11T23:31:30.934Z,9.18
2023-02-11T23:33:58.074Z,9.19
2023-02-11T23:36:25.739Z,9.20
2023-02-11T23:38:52.866Z,9.20
2023-02-11T23:41:20.025Z,9.19
2023-02-11T23:43:51.642Z,9.16
2023-02-11T23:46:21.816Z,9.17
2023-02-11T23:48:50.038Z,9.05
2023-02-11T23:51:18.246Z,9.10
2023-02-11T23:53:49.380Z,9.12
2023-02-11T23:56:22.401Z,9.12
2023-02-11T23:58:50.660Z,9.13
